Anton, Texas
Current Conditions -  °F | °C
As of 3:53 PM on Friday 24 Oct 2014 (Local Time) from KLBB Reporting Station
Few Clouds Few Clouds  
Wind Chill: 85°   Ceiling: Unl
Heat Index: 85°   Visibility: 10mi
Dew Point: 50°   Wind: 13mph
Humidity: 30%   Direction: 240°WSW
Pressure: 30.11"   Gusts: 23mph
Location:  33.81°N, 102.16°W
Report Text: KLBB 242053Z 24011G20KT 10SM FEW070 FEW270 29/10 A3011 RMK AO2 SLP154 T02940100 56020
Loading
Personal Weather Stations






























Interactive Weather Map New forecast layout! Learn more

10-Day Weather Forecast

Advertisements
Track Severe Weather on mobile